createdAt,value
2024-03-11T00:02:07.317Z,30.13
2024-03-11T00:04:37.960Z,30.12
2024-03-11T00:07:10.686Z,30.16
2024-03-11T00:09:46.384Z,30.19
2024-03-11T00:12:24.832Z,30.22
2024-03-11T00:14:55.522Z,30.20
2024-03-11T00:17:26.097Z,30.23
2024-03-11T00:19:57.198Z,30.24
2024-03-11T00:22:28.357Z,30.27
2024-03-11T00:24:58.976Z,30.27
2024-03-11T00:27:29.677Z,30.25
2024-03-11T00:30:00.403Z,30.29
2024-03-11T00:32:32.483Z,30.27
2024-03-11T00:35:03.456Z,30.24
2024-03-11T00:37:34.015Z,30.28
2024-03-11T00:40:07.943Z,30.32
2024-03-11T00:42:42.227Z,30.35
2024-03-11T00:45:14.305Z,30.32
2024-03-11T00:47:45.198Z,30.34
2024-03-11T00:50:16.406Z,30.35
2024-03-11T00:52:49.031Z,30.34
2024-03-11T00:55:19.820Z,30.43
2024-03-11T00:57:51.210Z,30.42
2024-03-11T01:00:24.504Z,30.41
2024-03-11T01:02:55.374Z,30.43
2024-03-11T01:05:26.899Z,30.44
2024-03-11T01:07:57.586Z,30.45
2024-03-11T01:10:28.088Z,30.45
2024-03-11T01:12:58.866Z,30.47
2024-03-11T01:15:29.527Z,30.49
2024-03-11T01:18:01.316Z,30.50
2024-03-11T01:20:32.265Z,30.51
2024-03-11T01:23:03.529Z,30.49
2024-03-11T01:25:35.538Z,30.55
2024-03-11T01:28:10.752Z,30.53
2024-03-11T01:30:41.492Z,30.59
2024-03-11T01:33:14.225Z,30.59
2024-03-11T01:35:45.650Z,30.63
2024-03-11T01:38:16.590Z,30.65
2024-03-11T01:40:48.868Z,30.64
2024-03-11T01:43:19.606Z,30.68
2024-03-11T01:45:50.904Z,30.71
2024-03-11T01:48:22.142Z,30.73
2024-03-11T01:50:52.990Z,30.76
2024-03-11T01:53:25.850Z,30.78
2024-03-11T01:55:57.384Z,30.81
2024-03-11T01:58:31.600Z,30.57
2024-03-11T02:01:02.518Z,30.84
2024-03-11T02:03:33.350Z,30.87
2024-03-11T02:06:04.012Z,30.89
2024-03-11T02:08:34.661Z,30.91
2024-03-11T02:11:05.204Z,30.93
2024-03-11T02:13:35.993Z,30.96
2024-03-11T02:16:06.772Z,30.99
2024-03-11T02:18:37.440Z,31.02
2024-03-11T02:21:08.591Z,31.05
2024-03-11T02:23:39.032Z,31.07
2024-03-11T02:26:09.707Z,31.10
2024-03-11T02:28:40.506Z,31.13
2024-03-11T02:31:11.016Z,31.16
2024-03-11T02:33:41.801Z,31.19
2024-03-11T02:36:12.187Z,31.24
2024-03-11T02:38:42.794Z,31.27
2024-03-11T02:41:13.211Z,31.27
2024-03-11T02:43:44.170Z,31.34
2024-03-11T02:46:14.743Z,31.36
2024-03-11T02:48:45.475Z,31.37
2024-03-11T02:51:16.259Z,31.43
2024-03-11T02:53:47.707Z,31.44
2024-03-11T02:56:19.214Z,31.49
2024-03-11T02:58:50.517Z,31.53
2024-03-11T03:01:21.248Z,31.56
2024-03-11T03:03:53.422Z,31.59
2024-03-11T03:06:24.054Z,31.64
2024-03-11T03:08:54.633Z,31.66
2024-03-11T03:11:25.221Z,31.69
2024-03-11T03:13:55.971Z,31.69
2024-03-11T03:16:26.544Z,31.75
2024-03-11T03:19:03.169Z,31.75
2024-03-11T03:21:34.062Z,31.79
2024-03-11T03:24:05.026Z,31.82
2024-03-11T03:26:35.559Z,31.84
2024-03-11T03:29:06.249Z,31.90
2024-03-11T03:31:36.430Z,31.92
2024-03-11T03:34:07.030Z,31.95
2024-03-11T03:36:37.995Z,31.99
2024-03-11T03:39:10.555Z,32.00
2024-03-11T03:41:41.470Z,32.02
2024-03-11T03:44:12.034Z,31.93
2024-03-11T03:46:43.200Z,32.04
2024-03-11T03:49:13.881Z,32.10
2024-03-11T03:51:44.308Z,32.14
2024-03-11T03:54:14.661Z,32.11
2024-03-11T03:56:45.304Z,32.21
2024-03-11T03:59:15.718Z,32.20
2024-03-11T04:01:46.501Z,32.25
2024-03-11T04:04:17.057Z,32.28
2024-03-11T04:06:47.730Z,32.29
2024-03-11T04:09:18.160Z,32.35
2024-03-11T04:11:48.998Z,32.33
2024-03-11T04:14:19.993Z,32.38
2024-03-11T04:16:50.879Z,32.39
2024-03-11T04:19:21.344Z,32.42
2024-03-11T04:21:53.141Z,32.44
2024-03-11T04:24:24.213Z,32.47
2024-03-11T04:26:58.209Z,32.51
2024-03-11T04:29:32.133Z,32.53
2024-03-11T04:32:02.883Z,32.55
2024-03-11T04:34:35.006Z,32.55
2024-03-11T04:37:05.756Z,32.61
2024-03-11T04:39:36.065Z,32.62
2024-03-11T04:42:06.730Z,32.65
2024-03-11T04:44:38.088Z,32.67
2024-03-11T04:47:08.882Z,32.65
2024-03-11T04:49:39.467Z,32.71
2024-03-11T04:52:10.781Z,32.74
2024-03-11T04:54:41.969Z,32.76
2024-03-11T04:57:12.533Z,32.82
2024-03-11T04:59:43.071Z,32.84
2024-03-11T05:02:13.826Z,32.84
2024-03-11T05:04:44.516Z,32.87
2024-03-11T05:07:15.054Z,32.91
2024-03-11T05:09:45.641Z,32.92
2024-03-11T05:12:16.341Z,32.96
2024-03-11T05:14:46.766Z,32.98
2024-03-11T05:17:17.640Z,33.00
2024-03-11T05:19:50.992Z,33.04
2024-03-11T05:22:22.348Z,33.07
2024-03-11T05:24:53.698Z,33.10
2024-03-11T05:27:24.249Z,33.10
2024-03-11T05:29:54.919Z,33.17
2024-03-11T05:32:25.642Z,33.19
2024-03-11T05:34:56.185Z,33.17
2024-03-11T05:37:28.680Z,33.26
2024-03-11T05:40:01.677Z,33.28
2024-03-11T05:42:32.708Z,33.33
2024-03-11T05:45:04.479Z,33.30
2024-03-11T05:47:34.797Z,33.25
2024-03-11T05:50:06.216Z,33.36
2024-03-11T05:52:36.566Z,33.33
2024-03-11T05:55:14.054Z,33.45
2024-03-11T05:57:50.921Z,33.50
2024-03-11T06:00:22.867Z,33.53
2024-03-11T06:02:54.241Z,33.45
2024-03-11T06:05:24.890Z,33.55
2024-03-11T06:07:55.374Z,33.57
2024-03-11T06:10:25.886Z,33.64
2024-03-11T06:12:56.537Z,33.66
2024-03-11T06:15:30.116Z,33.70
2024-03-11T06:18:00.694Z,33.73
2024-03-11T06:20:31.666Z,33.75
2024-03-11T06:23:05.120Z,33.78
2024-03-11T06:25:35.799Z,33.81
2024-03-11T06:28:07.065Z,33.85
2024-03-11T06:30:38.012Z,33.91
2024-03-11T06:33:12.083Z,33.91
2024-03-11T06:35:42.639Z,33.96
2024-03-11T06:38:13.266Z,33.98
2024-03-11T06:40:46.325Z,34.02
2024-03-11T06:43:17.122Z,34.05
2024-03-11T06:45:48.812Z,34.05
2024-03-11T06:48:19.230Z,34.03
2024-03-11T06:50:49.640Z,34.16
2024-03-11T06:53:20.287Z,34.20
2024-03-11T06:55:52.099Z,34.22
2024-03-11T06:58:22.793Z,34.25
2024-03-11T07:00:53.769Z,34.33
2024-03-11T07:03:25.639Z,34.37
2024-03-11T07:05:56.308Z,34.43
2024-03-11T07:08:29.688Z,34.48
2024-03-11T07:11:03.790Z,34.52
2024-03-11T07:13:35.012Z,34.57
2024-03-11T07:16:09.048Z,34.60
2024-03-11T07:18:39.933Z,34.66
2024-03-11T07:21:12.002Z,34.72
2024-03-11T07:23:43.426Z,34.75
2024-03-11T07:26:14.148Z,34.82
2024-03-11T07:28:44.980Z,34.87
2024-03-11T07:31:15.720Z,34.93
2024-03-11T07:33:50.424Z,34.98
2024-03-11T07:36:20.927Z,35.04
2024-03-11T07:38:51.762Z,35.07
2024-03-11T07:41:22.406Z,35.14
2024-03-11T07:43:53.654Z,35.21
2024-03-11T07:46:24.333Z,35.27
2024-03-11T07:48:56.856Z,35.32
2024-03-11T07:51:27.651Z,35.39
2024-03-11T07:53:58.210Z,35.45
2024-03-11T07:56:29.076Z,35.51
2024-03-11T07:58:59.922Z,35.56
2024-03-11T08:01:30.723Z,35.64
2024-03-11T08:04:01.789Z,35.70
2024-03-11T08:06:32.892Z,35.79
2024-03-11T08:09:03.732Z,35.85
2024-03-11T08:11:34.743Z,35.91
2024-03-11T08:14:06.547Z,35.91
2024-03-11T08:16:37.354Z,36.06
2024-03-11T08:19:08.031Z,36.09
2024-03-11T08:21:38.904Z,36.18
2024-03-11T08:24:10.284Z,36.23
2024-03-11T08:26:40.975Z,36.31
2024-03-11T08:29:12.299Z,36.35
2024-03-11T08:31:43.102Z,36.40
2024-03-11T08:34:14.003Z,36.49
2024-03-11T08:36:44.623Z,36.52
2024-03-11T08:39:16.676Z,36.60
2024-03-11T08:41:47.530Z,36.65
2024-03-11T08:44:18.111Z,36.74
2024-03-11T08:46:49.158Z,36.74
2024-03-11T08:49:20.123Z,36.86
2024-03-11T08:51:51.476Z,36.93
2024-03-11T08:54:22.191Z,37.00
2024-03-11T08:56:52.733Z,37.07
2024-03-11T08:59:23.129Z,37.14
2024-03-11T09:01:56.478Z,37.22
2024-03-11T09:04:27.215Z,37.28
2024-03-11T09:06:59.750Z,37.37
2024-03-11T09:09:31.182Z,37.40
2024-03-11T09:12:03.246Z,37.44
2024-03-11T09:14:35.299Z,37.47
2024-03-11T09:17:05.984Z,37.54
2024-03-11T09:19:36.904Z,37.60
2024-03-11T09:22:07.956Z,37.63
2024-03-11T09:24:39.123Z,37.52
2024-03-11T09:27:09.766Z,37.58
2024-03-11T09:29:40.568Z,37.56
2024-03-11T09:32:11.164Z,37.61
2024-03-11T09:34:41.955Z,37.66
2024-03-11T09:37:12.470Z,37.58
2024-03-11T09:39:42.962Z,37.55
2024-03-11T09:42:15.590Z,37.62
2024-03-11T09:44:47.321Z,37.73
2024-03-11T09:47:18.434Z,37.73
2024-03-11T09:49:49.916Z,37.77
2024-03-11T09:52:23.056Z,37.78
2024-03-11T09:54:55.469Z,37.79
2024-03-11T09:57:29.235Z,37.75
2024-03-11T10:00:02.615Z,37.59
2024-03-11T10:02:51.035Z,37.76
2024-03-11T10:05:25.221Z,37.74
2024-03-11T10:07:56.126Z,37.63
2024-03-11T10:10:27.616Z,37.64
2024-03-11T10:13:00.889Z,37.56
2024-03-11T10:15:35.189Z,37.58
2024-03-11T10:18:11.713Z,37.54
2024-03-11T10:20:43.597Z,37.66
2024-03-11T10:23:20.630Z,37.34
2024-03-11T10:25:54.409Z,37.58
2024-03-11T10:28:44.978Z,37.56
2024-03-11T10:31:42.760Z,37.51
2024-03-11T10:34:15.627Z,37.48
2024-03-11T10:36:49.319Z,37.47
2024-03-11T10:39:24.766Z,37.36
2024-03-11T10:41:56.347Z,37.31
2024-03-11T10:44:31.506Z,37.33
2024-03-11T10:47:19.455Z,37.21
2024-03-11T10:49:51.940Z,37.12
2024-03-11T10:52:25.020Z,37.07
2024-03-11T10:57:46.242Z,37.03
2024-03-11T11:00:24.573Z,37.00
2024-03-11T11:03:16.226Z,36.93
2024-03-11T11:06:17.246Z,36.66
2024-03-11T11:08:50.643Z,36.89
2024-03-11T11:11:22.125Z,36.83
2024-03-11T11:13:57.730Z,36.62
2024-03-11T11:16:28.943Z,36.72
2024-03-11T11:19:02.380Z,36.73
2024-03-11T11:21:34.632Z,36.58
2024-03-11T11:24:36.269Z,36.61
2024-03-11T11:27:09.454Z,36.68
2024-03-11T11:29:40.335Z,36.65
2024-03-11T11:32:15.781Z,36.58
2024-03-11T11:34:51.892Z,36.58
2024-03-11T11:37:23.637Z,36.58
2024-03-11T11:39:54.471Z,36.55
2024-03-11T11:42:43.142Z,36.44
2024-03-11T11:45:16.754Z,36.47
2024-03-11T11:47:48.248Z,36.44
2024-03-11T11:50:33.174Z,36.29
2024-03-11T11:53:05.707Z,36.37
2024-03-11T11:55:36.795Z,36.29
2024-03-11T11:58:12.671Z,36.28
2024-03-11T12:00:45.015Z,36.27
2024-03-11T12:03:32.812Z,36.19
2024-03-11T12:06:10.777Z,35.99
2024-03-11T12:08:41.815Z,36.16
2024-03-11T12:11:14.845Z,36.14
2024-03-11T12:13:47.371Z,36.08
2024-03-11T12:16:26.167Z,36.04
2024-03-11T12:19:04.690Z,35.86
2024-03-11T12:21:36.609Z,36.00
2024-03-11T12:24:12.159Z,35.96
2024-03-11T12:26:48.078Z,35.94
2024-03-11T12:29:23.741Z,35.87
2024-03-11T12:31:59.276Z,35.71
2024-03-11T12:34:30.853Z,35.86
2024-03-11T12:37:02.655Z,35.81
2024-03-11T12:39:45.047Z,35.76
2024-03-11T12:42:18.435Z,35.70
2024-03-11T12:45:06.291Z,35.71
2024-03-11T12:47:37.271Z,35.69
2024-03-11T12:50:13.563Z,35.62
2024-03-11T12:52:44.708Z,35.66
2024-03-11T12:55:17.278Z,35.58
2024-03-11T12:57:48.797Z,35.56
2024-03-11T13:00:27.437Z,35.54
2024-03-11T13:03:16.878Z,35.47
2024-03-11T13:06:06.008Z,35.22
2024-03-11T13:08:37.146Z,35.33
2024-03-11T13:11:12.196Z,35.27
2024-03-11T13:13:44.581Z,35.24
2024-03-11T13:16:19.024Z,35.17
2024-03-11T13:18:54.815Z,35.08
2024-03-11T13:21:27.694Z,35.04
2024-03-11T13:24:01.835Z,35.00
2024-03-11T13:26:32.841Z,34.99
2024-03-11T13:29:04.524Z,34.94
2024-03-11T13:31:36.091Z,34.96
2024-03-11T13:34:07.610Z,34.94
2024-03-11T13:36:37.866Z,34.86
2024-03-11T13:39:20.269Z,34.86
2024-03-11T13:41:52.196Z,34.87
2024-03-11T13:44:23.491Z,34.83
2024-03-11T13:46:57.062Z,34.83
2024-03-11T13:49:30.422Z,34.82
2024-03-11T13:52:10.961Z,34.82
2024-03-11T13:54:45.058Z,34.79
2024-03-11T13:57:20.038Z,34.77
2024-03-11T13:59:51.261Z,34.75
2024-03-11T14:02:26.619Z,34.70
2024-03-11T14:05:10.926Z,34.71
2024-03-11T14:07:46.330Z,34.56
2024-03-11T14:10:20.447Z,34.69
2024-03-11T14:12:58.544Z,34.47
2024-03-11T14:15:32.481Z,34.65
2024-03-11T14:18:06.611Z,34.63
2024-03-11T14:20:38.597Z,34.61
2024-03-11T14:23:14.979Z,34.55
2024-03-11T14:25:46.387Z,34.53
2024-03-11T14:28:19.185Z,34.46
2024-03-11T14:30:50.692Z,34.44
2024-03-11T14:33:26.941Z,34.44
2024-03-11T14:35:58.678Z,34.40
2024-03-11T14:38:30.535Z,34.31
2024-03-11T14:41:00.986Z,34.00
2024-03-11T14:43:34.238Z,34.13
2024-03-11T14:46:07.244Z,33.99
2024-03-11T14:48:57.397Z,33.79
2024-03-11T14:51:48.036Z,33.83
2024-03-11T14:54:25.845Z,33.66
2024-03-11T14:56:57.963Z,33.57
2024-03-11T14:59:30.680Z,33.54
2024-03-11T15:02:05.043Z,33.51
2024-03-11T15:04:36.084Z,33.39
2024-03-11T15:07:08.465Z,33.32
2024-03-11T15:09:45.000Z,33.29
2024-03-11T15:12:18.159Z,33.24
2024-03-11T15:14:49.563Z,33.16
2024-03-11T15:17:20.823Z,33.09
2024-03-11T15:19:52.272Z,33.05
2024-03-11T15:22:23.269Z,33.01
2024-03-11T15:24:56.849Z,32.99
2024-03-11T15:27:28.416Z,32.90
2024-03-11T15:29:59.205Z,32.78
2024-03-11T15:32:30.884Z,32.75
2024-03-11T15:35:04.175Z,32.81
2024-03-11T15:37:36.471Z,32.74
2024-03-11T15:40:09.050Z,32.71
2024-03-11T15:42:39.921Z,32.66
2024-03-11T15:45:14.975Z,32.60
2024-03-11T15:47:46.115Z,32.56
2024-03-11T15:50:23.885Z,32.49
2024-03-11T15:52:55.602Z,32.44
2024-03-11T15:55:28.333Z,32.44
2024-03-11T15:57:59.514Z,32.42
2024-03-11T16:00:31.321Z,32.27
2024-03-11T16:03:05.883Z,32.36
2024-03-11T16:05:40.090Z,32.30
2024-03-11T16:08:11.263Z,32.32
2024-03-11T16:10:45.270Z,32.29
2024-03-11T16:13:16.288Z,32.29
2024-03-11T16:15:47.354Z,32.22
2024-03-11T16:18:18.766Z,32.15
2024-03-11T16:20:51.720Z,32.18
2024-03-11T16:23:23.248Z,32.10
2024-03-11T16:25:55.177Z,32.17
2024-03-11T16:28:26.598Z,32.16
2024-03-11T16:30:57.796Z,32.15
2024-03-11T16:33:32.344Z,32.14
2024-03-11T16:36:04.010Z,32.12
2024-03-11T16:38:34.883Z,32.04
2024-03-11T16:41:05.752Z,32.03
2024-03-11T16:43:37.952Z,32.01
2024-03-11T16:46:10.145Z,31.94
2024-03-11T16:48:41.126Z,31.93
2024-03-11T16:51:12.501Z,31.92
2024-03-11T16:53:43.285Z,31.90
2024-03-11T16:56:15.171Z,31.86
2024-03-11T16:58:46.141Z,31.79
2024-03-11T17:01:19.785Z,31.75
2024-03-11T17:03:51.565Z,31.79
2024-03-11T17:06:23.430Z,31.69
2024-03-11T17:08:54.580Z,31.71
2024-03-11T17:11:25.515Z,31.66
2024-03-11T17:13:58.778Z,31.65
2024-03-11T17:16:30.977Z,31.59
2024-03-11T17:19:02.502Z,31.60
2024-03-11T17:21:34.373Z,31.57
2024-03-11T17:24:07.810Z,31.56
2024-03-11T17:26:39.083Z,31.51
2024-03-11T17:29:12.316Z,31.50
2024-03-11T17:31:43.060Z,31.46
2024-03-11T17:34:20.160Z,31.41
2024-03-11T17:36:51.795Z,31.41
2024-03-11T17:39:23.142Z,31.33
2024-03-11T17:41:54.118Z,31.31
2024-03-11T17:44:25.584Z,31.30
2024-03-11T17:46:56.216Z,31.28
2024-03-11T17:49:27.306Z,31.27
2024-03-11T17:51:58.597Z,31.26
2024-03-11T17:54:29.415Z,31.23
2024-03-11T17:56:59.724Z,31.21
2024-03-11T17:59:32.635Z,31.19
2024-03-11T18:02:03.151Z,31.14
2024-03-11T18:04:35.674Z,31.14
2024-03-11T18:07:07.557Z,31.02
2024-03-11T18:09:43.504Z,31.07
2024-03-11T18:12:14.177Z,31.05
2024-03-11T18:14:44.952Z,31.03
2024-03-11T18:17:16.537Z,30.99
2024-03-11T18:19:47.147Z,30.99
2024-03-11T18:22:20.572Z,31.00
2024-03-11T18:24:51.245Z,31.01
2024-03-11T18:27:22.256Z,31.00
2024-03-11T18:29:55.281Z,30.96
2024-03-11T18:32:30.611Z,30.97
2024-03-11T18:35:01.357Z,30.98
2024-03-11T18:37:32.110Z,30.93
2024-03-11T18:40:02.944Z,30.90
2024-03-11T18:42:33.522Z,30.88
2024-03-11T18:45:03.961Z,30.81
2024-03-11T18:47:37.166Z,30.61
2024-03-11T18:50:09.105Z,30.80
2024-03-11T18:52:53.565Z,30.78
2024-03-11T18:55:31.919Z,30.75
2024-03-11T18:58:04.222Z,30.73
2024-03-11T19:00:35.629Z,30.70
2024-03-11T19:03:07.320Z,30.71
2024-03-11T19:05:38.116Z,30.68
2024-03-11T19:08:09.875Z,30.65
2024-03-11T19:10:40.175Z,30.59
2024-03-11T19:13:10.451Z,30.61
2024-03-11T19:15:41.052Z,30.60
2024-03-11T19:18:12.481Z,30.54
2024-03-11T19:20:44.529Z,30.56
2024-03-11T19:23:15.543Z,30.49
2024-03-11T19:25:46.328Z,30.51
2024-03-11T19:28:18.023Z,30.52
2024-03-11T19:30:48.607Z,30.49
2024-03-11T19:33:19.929Z,30.44
2024-03-11T19:35:52.449Z,30.43
2024-03-11T19:38:48.501Z,30.46
2024-03-11T19:41:34.182Z,30.39
2024-03-11T19:44:26.971Z,30.41
2024-03-11T19:47:35.225Z,30.30
2024-03-11T19:50:40.877Z,30.30
2024-03-11T19:53:48.343Z,30.31
2024-03-11T19:56:33.486Z,30.31
2024-03-11T19:59:38.429Z,30.25
2024-03-11T20:02:18.425Z,30.28
2024-03-11T20:05:17.923Z,30.26
2024-03-11T20:08:18.428Z,30.19
2024-03-11T20:11:15.065Z,30.23
2024-03-11T20:14:06.746Z,30.23
2024-03-11T20:16:55.512Z,30.24
2024-03-11T20:20:06.895Z,30.17
2024-03-11T20:22:54.223Z,29.96
2024-03-11T20:25:45.506Z,30.15
2024-03-11T20:28:45.131Z,30.08
2024-03-11T20:31:19.806Z,30.11
2024-03-11T20:33:50.345Z,30.08
2024-03-11T20:36:24.506Z,30.09
2024-03-11T20:38:55.613Z,30.08
2024-03-11T20:41:25.863Z,30.08
2024-03-11T20:43:56.806Z,30.05
2024-03-11T20:46:27.119Z,30.04
2024-03-11T20:48:59.038Z,30.01
2024-03-11T20:51:29.776Z,29.96
2024-03-11T20:54:01.365Z,29.99
2024-03-11T20:56:31.919Z,29.97
2024-03-11T20:59:02.570Z,29.99
2024-03-11T21:01:33.660Z,29.98
2024-03-11T21:04:04.346Z,29.96
2024-03-11T21:06:34.757Z,29.90
2024-03-11T21:09:05.598Z,29.91
2024-03-11T21:11:36.056Z,29.94
2024-03-11T21:14:07.804Z,29.90
2024-03-11T21:16:42.988Z,29.89
2024-03-11T21:19:27.539Z,29.86
2024-03-11T21:22:16.187Z,29.88
2024-03-11T21:24:49.562Z,29.88
2024-03-11T21:27:26.240Z,29.87
2024-03-11T21:29:57.592Z,29.87
2024-03-11T21:32:29.326Z,29.87
2024-03-11T21:34:59.639Z,29.82
2024-03-11T21:37:32.063Z,29.82
2024-03-11T21:40:03.696Z,29.82
2024-03-11T21:42:34.257Z,29.80
2024-03-11T21:45:04.480Z,29.78
2024-03-11T21:47:38.238Z,29.78
2024-03-11T21:50:14.825Z,29.80
2024-03-11T21:52:46.039Z,29.75
2024-03-11T21:55:17.928Z,29.74
2024-03-11T21:57:48.848Z,29.73
2024-03-11T22:00:19.894Z,29.72
2024-03-11T22:02:50.645Z,29.69
2024-03-11T22:05:20.864Z,29.67
2024-03-11T22:07:51.657Z,29.71
2024-03-11T22:10:22.096Z,29.65
2024-03-11T22:12:52.922Z,29.67
2024-03-11T22:15:23.580Z,29.68
2024-03-11T22:17:55.713Z,29.66
2024-03-11T22:20:26.761Z,29.66
2024-03-11T22:22:58.220Z,29.64
2024-03-11T22:25:29.430Z,29.65
2024-03-11T22:28:00.345Z,29.61
2024-03-11T22:30:31.088Z,29.65
2024-03-11T22:33:01.796Z,29.71
2024-03-11T22:35:32.232Z,29.76
2024-03-11T22:38:03.714Z,29.80
2024-03-11T22:40:37.691Z,29.84
2024-03-11T22:43:08.345Z,29.82
2024-03-11T22:45:39.101Z,29.92
2024-03-11T22:48:11.304Z,29.95
2024-03-11T22:50:42.414Z,29.99
2024-03-11T22:53:13.203Z,30.01
2024-03-11T22:55:43.691Z,30.05
2024-03-11T22:58:14.557Z,29.98
2024-03-11T23:00:57.340Z,30.08
2024-03-11T23:03:27.847Z,30.09
2024-03-11T23:05:58.627Z,30.07
2024-03-11T23:08:31.001Z,30.09
2024-03-11T23:11:01.593Z,30.08
2024-03-11T23:13:32.475Z,30.08
2024-03-11T23:16:03.295Z,30.11
2024-03-11T23:18:35.593Z,30.08
2024-03-11T23:21:07.096Z,30.16
2024-03-11T23:23:42.493Z,30.03
2024-03-11T23:26:13.144Z,30.20
2024-03-11T23:28:43.797Z,30.23
2024-03-11T23:31:15.945Z,30.20
2024-03-11T23:33:46.887Z,30.29
2024-03-11T23:36:17.551Z,30.28
2024-03-11T23:38:48.057Z,30.32
2024-03-11T23:41:19.311Z,30.30
2024-03-11T23:43:49.872Z,30.39
2024-03-11T23:46:21.011Z,30.45
2024-03-11T23:48:53.364Z,30.48
2024-03-11T23:51:23.990Z,30.47
2024-03-11T23:53:54.529Z,30.51
2024-03-11T23:56:25.226Z,30.52
2024-03-11T23:58:55.932Z,30.54
